createdAt,value
2023-04-21T00:01:58.838Z,11.38
2023-04-21T00:05:03.152Z,11.33
2023-04-21T00:08:06.572Z,11.32
2023-04-21T00:11:09.723Z,11.20
2023-04-21T00:14:12.717Z,11.09
2023-04-21T00:17:15.485Z,11.20
2023-04-21T00:20:19.968Z,11.08
2023-04-21T00:23:22.992Z,11.05
2023-04-21T00:26:25.834Z,11.01
2023-04-21T00:29:28.672Z,11.01
2023-04-21T00:32:31.461Z,10.96
2023-04-21T00:35:35.873Z,10.96
2023-04-21T00:38:38.781Z,10.85
2023-04-21T00:41:42.422Z,10.92
2023-04-21T00:44:45.743Z,10.86
2023-04-21T00:47:48.481Z,10.82
2023-04-21T00:50:52.777Z,10.78
2023-04-21T00:53:56.843Z,10.82
2023-04-21T00:57:01.611Z,10.74
2023-04-21T01:00:08.934Z,10.85
2023-04-21T01:03:11.872Z,10.92
2023-04-21T01:06:16.208Z,10.84
2023-04-21T01:09:19.409Z,10.78
2023-04-21T01:12:22.421Z,10.76
2023-04-21T01:15:27.457Z,10.79
2023-04-21T01:18:30.259Z,10.74
2023-04-21T01:21:40.599Z,10.72
2023-04-21T01:24:44.630Z,10.74
2023-04-21T01:27:47.594Z,10.83
2023-04-21T01:30:50.679Z,10.77
2023-04-21T01:33:53.406Z,10.69
2023-04-21T01:36:57.654Z,10.72
2023-04-21T01:40:05.009Z,10.63
2023-04-21T01:43:07.956Z,10.58
2023-04-21T01:46:10.939Z,10.60
2023-04-21T01:49:13.749Z,10.53
2023-04-21T01:52:17.920Z,10.46
2023-04-21T01:55:21.548Z,10.35
2023-04-21T01:58:24.308Z,10.32
2023-04-21T02:01:27.160Z,10.40
2023-04-21T02:04:30.161Z,10.35
2023-04-21T02:07:34.504Z,10.39
2023-04-21T02:10:37.474Z,10.45
2023-04-21T02:13:40.188Z,10.38
2023-04-21T02:16:43.288Z,10.33
2023-04-21T02:19:47.740Z,10.33
2023-04-21T02:22:52.087Z,10.31
2023-04-21T02:25:55.001Z,10.39
2023-04-21T02:28:57.772Z,10.29
2023-04-21T02:32:10.437Z,10.30
2023-04-21T02:35:20.932Z,10.29
2023-04-21T02:38:25.224Z,10.26
2023-04-21T02:41:28.067Z,10.17
2023-04-21T02:44:31.085Z,10.17
2023-04-21T02:47:34.075Z,10.12
2023-04-21T02:50:37.014Z,10.13
2023-04-21T02:53:41.450Z,10.16
2023-04-21T02:56:44.335Z,10.25
2023-04-21T02:59:47.073Z,10.13
2023-04-21T03:02:50.135Z,10.09
2023-04-21T03:05:57.972Z,10.07
2023-04-21T03:09:03.426Z,9.99
2023-04-21T03:12:06.389Z,9.99
2023-04-21T03:15:09.338Z,10.03
2023-04-21T03:18:12.421Z,10.04
2023-04-21T03:21:15.776Z,10.05
2023-04-21T03:24:21.537Z,10.05
2023-04-21T03:27:24.355Z,10.03
2023-04-21T03:30:27.299Z,10.02
2023-04-21T03:33:30.134Z,9.99
2023-04-21T03:36:32.866Z,10.10
2023-04-21T03:39:37.270Z,10.01
2023-04-21T03:42:40.020Z,9.98
2023-04-21T03:45:42.760Z,10.06
2023-04-21T03:48:45.641Z,10.04
2023-04-21T03:51:48.502Z,10.08
2023-04-21T03:54:52.772Z,9.94
2023-04-21T03:57:55.736Z,9.87
2023-04-21T04:00:58.453Z,9.87
2023-04-21T04:04:01.525Z,9.88
2023-04-21T04:07:04.910Z,9.93
2023-04-21T04:10:09.423Z,9.84
2023-04-21T04:13:12.949Z,9.86
2023-04-21T04:16:15.920Z,9.95
2023-04-21T04:19:19.082Z,9.87
2023-04-21T04:22:22.045Z,9.94
2023-04-21T04:25:27.154Z,9.94
2023-04-21T04:28:30.859Z,9.94
2023-04-21T04:31:34.681Z,9.94
2023-04-21T04:34:37.862Z,10.16
2023-04-21T04:37:41.139Z,10.10
2023-04-21T04:40:45.540Z,10.19
2023-04-21T04:43:48.549Z,10.19
2023-04-21T04:46:52.644Z,10.38
2023-04-21T04:49:55.776Z,10.56
2023-04-21T04:52:58.525Z,10.78
2023-04-21T04:56:02.828Z,10.96
2023-04-21T04:59:05.786Z,11.16
2023-04-21T05:02:08.983Z,11.20
2023-04-21T05:05:11.959Z,11.42
2023-04-21T05:08:17.134Z,11.53
2023-04-21T05:11:22.027Z,11.75
2023-04-21T05:14:24.897Z,11.84
2023-04-21T05:17:28.672Z,12.06
2023-04-21T05:20:31.836Z,11.89
2023-04-21T05:23:34.613Z,11.89
2023-04-21T05:26:38.840Z,11.96
2023-04-21T05:29:41.693Z,11.97
2023-04-21T05:32:44.449Z,11.78
2023-04-21T05:35:47.312Z,11.80
2023-04-21T05:38:50.054Z,11.75
2023-04-21T05:41:54.256Z,11.68
2023-04-21T05:44:57.150Z,11.75
2023-04-21T05:47:59.885Z,11.89
2023-04-21T05:51:09.754Z,11.94
2023-04-21T05:54:12.492Z,12.05
2023-04-21T05:57:17.985Z,12.38
2023-04-21T06:00:20.915Z,12.48
2023-04-21T06:03:23.977Z,12.65
2023-04-21T06:06:27.498Z,12.69
2023-04-21T06:09:30.233Z,12.75
2023-04-21T06:12:34.462Z,13.02
2023-04-21T06:15:37.422Z,13.05
2023-04-21T06:18:40.180Z,13.17
2023-04-21T06:21:43.016Z,13.58
2023-04-21T06:24:45.734Z,13.90
2023-04-21T06:27:49.970Z,14.03
2023-04-21T06:30:52.846Z,14.45
2023-04-21T06:33:55.566Z,14.99
2023-04-21T06:36:58.379Z,15.37
2023-04-21T06:40:01.276Z,15.78
2023-04-21T06:43:05.896Z,16.06
2023-04-21T06:46:08.774Z,16.59
2023-04-21T06:49:12.008Z,16.68
2023-04-21T06:52:14.972Z,16.88
2023-04-21T06:55:17.878Z,17.15
2023-04-21T06:58:22.116Z,17.37
2023-04-21T07:01:25.245Z,17.63
2023-04-21T07:04:30.288Z,17.70
2023-04-21T07:07:33.183Z,17.90
2023-04-21T07:10:35.914Z,17.86
2023-04-21T07:13:40.220Z,18.05
2023-04-21T07:16:43.122Z,18.20
2023-04-21T07:19:46.294Z,18.51
2023-04-21T07:22:49.216Z,18.96
2023-04-21T07:25:51.940Z,19.20
2023-04-21T07:28:58.656Z,19.37
2023-04-21T07:32:02.038Z,19.55
2023-04-21T07:35:05.486Z,19.85
2023-04-21T07:38:08.408Z,20.02
2023-04-21T07:41:11.888Z,19.84
2023-04-21T07:44:16.130Z,20.43
2023-04-21T07:47:18.939Z,20.35
2023-04-21T07:50:21.722Z,20.48
2023-04-21T07:53:24.656Z,20.43
2023-04-21T07:56:27.378Z,20.58
2023-04-21T07:59:31.743Z,20.90
2023-04-21T08:02:34.758Z,20.91
2023-04-21T08:05:40.977Z,21.20
2023-04-21T08:08:44.497Z,21.35
2023-04-21T08:11:47.241Z,21.61
2023-04-21T08:14:51.568Z,21.85
2023-04-21T08:17:55.095Z,21.86
2023-04-21T08:20:58.370Z,22.01
2023-04-21T08:24:01.589Z,22.46
2023-04-21T08:27:04.469Z,22.73
2023-04-21T08:30:10.283Z,22.33
2023-04-21T08:33:14.047Z,22.51
2023-04-21T08:36:26.390Z,22.91
2023-04-21T08:39:32.496Z,22.94
2023-04-21T08:42:36.870Z,22.57
2023-04-21T08:45:42.727Z,22.41
2023-04-21T08:48:47.946Z,22.72
2023-04-21T08:51:51.313Z,23.09
2023-04-21T08:54:55.636Z,23.18
2023-04-21T08:57:58.513Z,23.31
2023-04-21T09:01:02.647Z,23.50
2023-04-21T09:04:18.951Z,23.30
2023-04-21T09:07:33.498Z,23.29
2023-04-21T09:10:44.049Z,23.88
2023-04-21T09:13:46.960Z,24.06
2023-04-21T09:17:01.044Z,23.86
2023-04-21T09:20:18.028Z,24.12
2023-04-21T09:23:22.262Z,24.23
2023-04-21T09:26:25.241Z,24.00
2023-04-21T09:29:29.281Z,24.08
2023-04-21T09:32:37.515Z,24.50
2023-04-21T09:35:40.625Z,24.60
2023-04-21T09:38:43.798Z,24.75
2023-04-21T09:41:48.417Z,24.65
2023-04-21T09:44:56.452Z,24.31
2023-04-21T09:48:20.027Z,24.51
2023-04-21T09:51:46.126Z,24.57
2023-04-21T09:54:51.627Z,24.86
2023-04-21T09:58:00.006Z,25.23
2023-04-21T10:01:04.728Z,25.34
2023-04-21T10:04:09.909Z,25.42
2023-04-21T10:07:13.454Z,25.57
2023-04-21T10:10:22.366Z,25.38
2023-04-21T10:13:25.888Z,25.69
2023-04-21T10:16:28.720Z,25.54
2023-04-21T10:19:36.238Z,25.81
2023-04-21T10:22:39.873Z,25.60
2023-04-21T10:25:42.634Z,25.68
2023-04-21T10:28:55.752Z,25.65
2023-04-21T10:31:58.883Z,26.15
2023-04-21T10:35:04.148Z,25.71
2023-04-21T10:38:08.293Z,25.66
2023-04-21T10:41:27.069Z,25.46
2023-04-21T10:44:30.854Z,25.86
2023-04-21T10:47:38.069Z,25.93
2023-04-21T10:50:42.417Z,25.69
2023-04-21T10:53:45.925Z,25.53
2023-04-21T10:56:50.065Z,25.54
2023-04-21T10:59:52.928Z,25.84
2023-04-21T11:02:58.041Z,25.60
2023-04-21T11:06:15.636Z,25.68
2023-04-21T11:09:18.555Z,25.70
2023-04-21T11:12:21.297Z,25.79
2023-04-21T11:15:25.467Z,25.79
2023-04-21T11:18:38.920Z,25.69
2023-04-21T11:21:43.377Z,25.65
2023-04-21T11:24:46.930Z,25.53
2023-04-21T11:27:56.735Z,25.55
2023-04-21T11:31:00.283Z,25.70
2023-04-21T11:34:05.258Z,25.59
2023-04-21T11:37:10.071Z,25.32
2023-04-21T11:40:13.529Z,25.02
2023-04-21T11:43:16.651Z,24.90
2023-04-21T11:46:23.723Z,24.88
2023-04-21T11:49:29.351Z,25.13
2023-04-21T11:52:37.556Z,25.40
2023-04-21T11:55:43.786Z,25.24
2023-04-21T11:58:46.956Z,24.53
2023-04-21T12:01:51.193Z,23.96
2023-04-21T12:05:02.124Z,24.54
2023-04-21T12:08:07.623Z,24.19
2023-04-21T12:11:11.492Z,24.68
2023-04-21T12:14:16.193Z,24.67
2023-04-21T12:17:19.374Z,24.40
2023-04-21T12:20:23.802Z,24.11
2023-04-21T12:23:30.539Z,23.89
2023-04-21T12:26:33.392Z,24.17
2023-04-21T12:29:37.504Z,24.16
2023-04-21T12:32:40.455Z,24.32
2023-04-21T12:35:43.282Z,24.11
2023-04-21T12:38:47.537Z,24.32
2023-04-21T12:41:50.399Z,24.04
2023-04-21T12:44:53.189Z,23.74
2023-04-21T12:47:56.255Z,24.12
2023-04-21T12:50:59.045Z,24.48
2023-04-21T12:54:03.588Z,24.18
2023-04-21T12:57:07.946Z,23.97
2023-04-21T13:00:12.980Z,23.62
2023-04-21T13:03:16.098Z,23.61
2023-04-21T13:06:19.051Z,23.57
2023-04-21T13:09:23.327Z,23.52
2023-04-21T13:12:26.172Z,23.43
2023-04-21T13:15:28.849Z,23.16
2023-04-21T13:18:31.734Z,23.17
2023-04-21T13:21:34.504Z,23.36
2023-04-21T13:24:38.785Z,23.37
2023-04-21T13:27:42.097Z,23.40
2023-04-21T13:30:45.096Z,23.35
2023-04-21T13:33:48.015Z,22.99
2023-04-21T13:36:50.958Z,23.29
2023-04-21T13:39:55.217Z,23.27
2023-04-21T13:42:58.827Z,23.37
2023-04-21T13:46:01.752Z,23.52
2023-04-21T13:49:04.780Z,23.39
2023-04-21T13:52:07.476Z,23.32
2023-04-21T13:55:12.970Z,23.16
2023-04-21T13:58:16.907Z,22.84
2023-04-21T14:01:21.585Z,22.79
2023-04-21T14:04:25.203Z,22.54
2023-04-21T14:07:28.052Z,22.49
2023-04-21T14:10:32.399Z,22.50
2023-04-21T14:13:44.597Z,22.64
2023-04-21T14:16:50.759Z,22.66
2023-04-21T14:19:55.220Z,22.52
2023-04-21T14:22:58.184Z,22.41
2023-04-21T14:26:03.811Z,22.45
2023-04-21T14:29:06.723Z,22.42
2023-04-21T14:32:09.477Z,22.56
2023-04-21T14:35:12.708Z,22.41
2023-04-21T14:38:15.469Z,22.36
2023-04-21T14:41:19.697Z,22.26
2023-04-21T14:44:22.564Z,22.04
2023-04-21T14:47:26.002Z,21.87
2023-04-21T14:50:28.973Z,21.93
2023-04-21T14:53:31.719Z,22.15
2023-04-21T14:56:36.242Z,22.11
2023-04-21T14:59:39.398Z,21.97
2023-04-21T15:02:42.469Z,21.93
2023-04-21T15:05:45.490Z,21.74
2023-04-21T15:08:48.408Z,21.81
2023-04-21T15:11:52.645Z,21.88
2023-04-21T15:14:55.398Z,21.82
2023-04-21T15:17:58.333Z,21.75
2023-04-21T15:21:01.830Z,21.73
2023-04-21T15:24:04.821Z,21.66
2023-04-21T15:27:09.083Z,21.61
2023-04-21T15:30:12.883Z,21.57
2023-04-21T15:33:17.144Z,21.65
2023-04-21T15:36:19.942Z,21.68
2023-04-21T15:39:22.705Z,21.54
2023-04-21T15:42:27.002Z,21.28
2023-04-21T15:45:29.677Z,21.19
2023-04-21T15:48:32.656Z,21.39
2023-04-21T15:51:36.155Z,21.24
2023-04-21T15:54:39.457Z,21.50
2023-04-21T15:57:43.927Z,21.27
2023-04-21T16:00:46.913Z,21.28
2023-04-21T16:03:50.024Z,21.11
2023-04-21T16:06:52.989Z,21.07
2023-04-21T16:09:55.804Z,21.08
2023-04-21T16:13:00.072Z,20.99
2023-04-21T16:16:02.994Z,21.04
2023-04-21T16:19:05.905Z,20.73
2023-04-21T16:22:09.624Z,20.97
2023-04-21T16:25:14.156Z,20.79
2023-04-21T16:28:18.620Z,20.57
2023-04-21T16:31:21.540Z,20.83
2023-04-21T16:34:24.549Z,20.52
2023-04-21T16:37:27.401Z,20.61
2023-04-21T16:40:30.326Z,20.60
2023-04-21T16:43:34.569Z,20.52
2023-04-21T16:46:37.306Z,20.39
2023-04-21T16:49:40.219Z,20.35
2023-04-21T16:52:43.048Z,20.06
2023-04-21T16:55:45.835Z,20.17
2023-04-21T16:58:51.237Z,20.38
2023-04-21T17:01:54.056Z,20.16
2023-04-21T17:04:56.885Z,19.89
2023-04-21T17:07:59.732Z,19.90
2023-04-21T17:11:02.474Z,19.91
2023-04-21T17:14:06.770Z,19.64
2023-04-21T17:17:09.573Z,19.82
2023-04-21T17:20:14.936Z,19.78
2023-04-21T17:23:17.762Z,19.68
2023-04-21T17:26:21.005Z,19.66
2023-04-21T17:29:25.240Z,19.42
2023-04-21T17:32:28.766Z,19.45
2023-04-21T17:35:32.968Z,19.45
2023-04-21T17:38:36.399Z,19.30
2023-04-21T17:41:39.139Z,19.40
2023-04-21T17:44:43.378Z,19.33
2023-04-21T17:47:46.225Z,19.25
2023-04-21T17:50:49.126Z,19.11
2023-04-21T17:53:52.718Z,18.94
2023-04-21T17:56:56.153Z,18.99
2023-04-21T18:00:00.748Z,18.83
2023-04-21T18:03:03.512Z,18.84
2023-04-21T18:06:07.100Z,18.66
2023-04-21T18:09:10.709Z,18.51
2023-04-21T18:12:13.531Z,18.51
2023-04-21T18:15:17.834Z,18.42
2023-04-21T18:18:20.966Z,18.34
2023-04-21T18:21:23.914Z,18.40
2023-04-21T18:24:26.717Z,18.24
2023-04-21T18:27:29.566Z,18.19
2023-04-21T18:30:34.227Z,17.96
2023-04-21T18:33:37.040Z,17.91
2023-04-21T18:36:39.915Z,17.79
2023-04-21T18:39:42.685Z,17.85
2023-04-21T18:42:46.672Z,17.78
2023-04-21T18:45:50.876Z,17.67
2023-04-21T18:48:54.196Z,17.63
2023-04-21T18:51:57.038Z,17.49
2023-04-21T18:54:59.760Z,17.48
2023-04-21T18:58:02.868Z,17.33
2023-04-21T19:01:07.450Z,17.28
2023-04-21T19:04:11.020Z,17.15
2023-04-21T19:07:15.740Z,17.08
2023-04-21T19:10:19.164Z,17.04
2023-04-21T19:13:21.934Z,17.15
2023-04-21T19:16:26.208Z,17.04
2023-04-21T19:19:28.908Z,16.89
2023-04-21T19:22:33.596Z,16.81
2023-04-21T19:25:37.110Z,16.82
2023-04-21T19:28:40.437Z,16.70
2023-04-21T19:31:44.767Z,16.70
2023-04-21T19:34:47.551Z,16.65
2023-04-21T19:37:50.905Z,16.54
2023-04-21T19:40:56.115Z,16.51
2023-04-21T19:43:58.942Z,16.43
2023-04-21T19:47:03.182Z,16.35
2023-04-21T19:50:07.779Z,16.31
2023-04-21T19:53:14.573Z,16.25
2023-04-21T19:56:17.387Z,16.35
2023-04-21T19:59:20.132Z,16.27
2023-04-21T20:02:24.437Z,16.18
2023-04-21T20:05:27.339Z,16.05
2023-04-21T20:08:30.760Z,16.13
2023-04-21T20:11:33.926Z,15.97
2023-04-21T20:14:36.693Z,15.99
2023-04-21T20:17:41.815Z,15.96
2023-04-21T20:20:44.716Z,15.90
2023-04-21T20:23:47.666Z,15.76
2023-04-21T20:26:50.558Z,15.69
2023-04-21T20:29:53.320Z,15.72
2023-04-21T20:32:57.563Z,15.61
2023-04-21T20:36:06.993Z,15.72
2023-04-21T20:39:09.867Z,15.67
2023-04-21T20:42:14.009Z,15.50
2023-04-21T20:45:18.308Z,15.49
2023-04-21T20:48:23.893Z,15.47
2023-04-21T20:51:26.846Z,15.57
2023-04-21T20:54:30.076Z,15.45
2023-04-21T20:57:33.546Z,15.35
2023-04-21T21:00:36.663Z,15.37
2023-04-21T21:03:41.034Z,15.22
2023-04-21T21:06:44.204Z,15.17
2023-04-21T21:09:47.096Z,15.07
2023-04-21T21:12:50.037Z,15.09
2023-04-21T21:15:53.242Z,15.10
2023-04-21T21:18:57.556Z,15.02
2023-04-21T21:22:00.243Z,15.07
2023-04-21T21:25:03.662Z,15.06
2023-04-21T21:28:06.666Z,15.02
2023-04-21T21:31:09.475Z,14.96
2023-04-21T21:34:13.698Z,14.81
2023-04-21T21:37:16.448Z,14.80
2023-04-21T21:40:19.310Z,14.77
2023-04-21T21:43:22.164Z,14.77
2023-04-21T21:46:25.051Z,14.66
2023-04-21T21:49:29.310Z,14.56
2023-04-21T21:52:32.019Z,14.50
2023-04-21T21:55:34.959Z,14.49
2023-04-21T21:58:37.942Z,14.51
2023-04-21T22:01:40.705Z,14.42
2023-04-21T22:04:45.038Z,14.29
2023-04-21T22:07:47.806Z,14.25
2023-04-21T22:10:50.715Z,14.24
2023-04-21T22:13:53.633Z,14.18
2023-04-21T22:16:57.229Z,14.16
2023-04-21T22:20:01.542Z,14.11
2023-04-21T22:23:05.128Z,13.96
2023-04-21T22:26:09.386Z,13.81
2023-04-21T22:29:12.246Z,13.84
2023-04-21T22:32:15.075Z,13.80
2023-04-21T22:35:19.558Z,13.72
2023-04-21T22:38:22.251Z,13.61
2023-04-21T22:41:25.507Z,13.54
2023-04-21T22:44:28.337Z,13.47
2023-04-21T22:47:31.051Z,13.41
2023-04-21T22:50:35.662Z,13.37
2023-04-21T22:53:38.363Z,13.26
2023-04-21T22:56:41.254Z,13.23
2023-04-21T22:59:44.115Z,13.20
2023-04-21T23:02:46.890Z,13.10
2023-04-21T23:05:51.191Z,13.03
2023-04-21T23:08:53.865Z,13.00
2023-04-21T23:11:56.719Z,12.95
2023-04-21T23:14:59.561Z,12.82
2023-04-21T23:18:02.293Z,12.71
2023-04-21T23:21:06.650Z,12.61
2023-04-21T23:24:09.416Z,12.60
2023-04-21T23:27:12.236Z,12.58
2023-04-21T23:30:15.507Z,12.55
2023-04-21T23:33:18.465Z,12.42
2023-04-21T23:36:22.804Z,12.34
2023-04-21T23:39:25.702Z,12.26
2023-04-21T23:42:28.575Z,12.21
2023-04-21T23:45:31.436Z,12.15
2023-04-21T23:48:34.876Z,12.07
2023-04-21T23:51:39.164Z,12.11
2023-04-21T23:54:41.915Z,12.09
2023-04-21T23:57:46.837Z,12.21
